Index of /~boyd/papers

[ICO]NameLast modifiedSizeDescription

[DIR]Parent Directory  -  
[   ]db.pdf08-Mar-2014 16:24 249K 
[TXT]cvx_short_course.html21-Aug-2018 06:45 6.8K 
[TXT]gnr_mix.html21-Aug-2018 06:45 6.8K 
[TXT]admm_distr_stats.html21-Aug-2018 06:45 6.0K 
[TXT]rate_alloc.html21-Aug-2018 06:45 5.5K 
[TXT]rot_arc_rad_ther.html21-Aug-2018 06:46 5.5K 
[TXT]dig_com_constraint.html21-Aug-2018 06:45 5.4K 
[TXT]rmvb.html21-Aug-2018 06:45 5.4K 
[TXT]interp_clin_dec_support.html21-Aug-2018 06:45 5.3K 
[TXT]code_gen_rhc.html21-Aug-2018 06:45 5.3K 
[TXT]cvx_opt_graph_lapl_eigs.html21-Aug-2018 06:45 5.3K 
[TXT]hybrid_veh.html21-Aug-2018 06:45 5.3K 
[TXT]heur_san_opt.html21-Aug-2018 06:45 5.1K 
[TXT]opamp.html21-Aug-2018 06:45 5.1K 
[TXT]date05.html21-Aug-2018 06:45 5.0K 
[TXT]low_bw_distr_fdbk.html21-Aug-2018 06:45 5.0K 
[TXT]CAD_lc.html21-Aug-2018 06:45 5.0K 
[TXT]opt_dig_com.html21-Aug-2018 06:45 4.9K 
[TXT]block_splitting.html21-Aug-2018 06:45 4.9K 
[TXT]port_opt_bound.html21-Aug-2018 06:45 4.9K 
[TXT]noncvx_mpc_refr.html21-Aug-2018 06:45 4.9K 
[TXT]sensor_selection.html21-Aug-2018 06:46 4.9K 
[TXT]reg_analog_recourse_unc.html21-Aug-2018 06:45 4.9K 
[TXT]dyn_res_alloc_dsl.html21-Aug-2018 06:45 4.8K 
[TXT]pri_dual.html21-Aug-2018 06:45 4.8K 
[TXT]fmmc.html21-Aug-2018 06:45 4.8K 
[TXT]expl_subopt.html21-Aug-2018 06:45 4.8K 
[TXT]msg_pass_dyn.html21-Aug-2018 06:45 4.8K 
[TXT]ticc.html21-Aug-2018 06:46 4.8K 
[TXT]gossip.html21-Aug-2018 06:45 4.8K 
[TXT]l1_ls.html21-Aug-2018 06:45 4.8K 
[TXT]srra.html21-Aug-2018 06:46 4.8K 
[TXT]scs.html21-Aug-2018 06:46 4.8K 
[TXT]self_tuning_max_lifetime.html21-Aug-2018 06:46 4.7K 
[TXT]risk_grp_det.html21-Aug-2018 06:45 4.7K 
[TXT]gene_net_id.html21-Aug-2018 06:45 4.7K 
[TXT]wind_gradients_cvx.html21-Aug-2018 06:46 4.7K 
[TXT]gossip_infocom.html21-Aug-2018 06:45 4.7K 
[TXT]near_opt_depth_constr_codes.html21-Aug-2018 06:45 4.7K 
[TXT]cdc02.html21-Aug-2018 06:45 4.7K 
[TXT]lin_mod_frisch.html21-Aug-2018 06:45 4.7K 
[TXT]rgp.html21-Aug-2018 06:45 4.6K 
[TXT]compr_sens_cone_beam_tomo.html21-Aug-2018 06:45 4.6K 
[TXT]psd_cone_proj.html21-Aug-2018 06:45 4.6K 
[TXT]fast_clf.html21-Aug-2018 06:45 4.6K 
[TXT]opt_wireless_network_ctrl.html21-Aug-2018 06:45 4.6K 
[TXT]rt_cvx_opt.html21-Aug-2018 06:46 4.6K 
[TXT]rad_plan.html21-Aug-2018 06:45 4.6K 
[TXT]sdpsol.html21-Aug-2018 06:46 4.6K 
[TXT]gevc.html21-Aug-2018 06:45 4.6K 
[TXT]osqp.html21-Aug-2018 06:45 4.6K 
[TXT]rc.html21-Aug-2018 06:45 4.6K 
[TXT]fast_opt_force.html21-Aug-2018 06:45 4.5K 
[TXT]rc_iccad.html21-Aug-2018 06:45 4.5K 
[TXT]outage.html21-Aug-2018 06:45 4.5K 
[TXT]abs_ops.html21-Aug-2018 06:45 4.5K 
[TXT]rob_ef_sep.html21-Aug-2018 06:45 4.5K 
[TXT]bandwidth_ext.html21-Aug-2018 06:45 4.5K 
[TXT]temp_aware_freq_assign.html21-Aug-2018 06:46 4.5K 
[TXT]stab_gen_ss.html21-Aug-2018 06:46 4.5K 
[TXT]disc_cvx_prog.html21-Aug-2018 06:45 4.5K 
[TXT]opera_dac.html21-Aug-2018 06:45 4.5K 
[TXT]minimax_frac.html21-Aug-2018 06:45 4.5K 
[TXT]temperature_uniformity.html21-Aug-2018 06:46 4.5K 
[TXT]pairwise_exp_struct.html21-Aug-2018 06:45 4.5K 
[TXT]distr_estim.html21-Aug-2018 06:45 4.4K 
[TXT]cvx_portfolio.html21-Aug-2018 06:45 4.4K 
[TXT]fmmp.html21-Aug-2018 06:45 4.4K 
[TXT]prox_algs.html21-Aug-2018 06:45 4.4K 
[   ]etuiq14-Sep-2017 19:19 4.4K 
[TXT]motor_current.html21-Aug-2018 06:45 4.4K 
[TXT]gp_task_slowdown.html21-Aug-2018 06:45 4.4K 
[TXT]rob_equalization.html21-Aug-2018 06:45 4.4K 
[TXT]two_bit_routing.html21-Aug-2018 06:46 4.4K 
[TXT]glrm.html21-Aug-2018 06:45 4.4K 
[TXT]joint_comm_contr.html21-Aug-2018 06:45 4.4K 
[TXT]inductance_expressions.html21-Aug-2018 06:45 4.4K 
[TXT]token_passing.html21-Aug-2018 06:46 4.4K 
[TXT]temp_ctrl_mcore.html21-Aug-2018 06:46 4.4K 
[TXT]oracle_dac.html21-Aug-2018 06:45 4.4K 
[TXT]slack_alloc.html21-Aug-2018 06:46 4.4K 
[TXT]mixed_system_est.html21-Aug-2018 06:45 4.4K 
[TXT]tradeoff_lcd.html21-Aug-2018 06:46 4.4K 
[TXT]pwr_noc.html21-Aug-2018 06:45 4.3K 
[TXT]conrad.html21-Aug-2018 06:45 4.3K 
[TXT]l1_trend_filter.html21-Aug-2018 06:45 4.3K 
[TXT]fast_tdma.html21-Aug-2018 06:45 4.3K 
[TXT]gp_tutorial.html21-Aug-2018 06:45 4.3K 
[TXT]eckman-paper.html21-Aug-2018 06:45 4.3K 
[TXT]dist-comp.html21-Aug-2018 06:45 4.3K 
[TXT]tvgl.html21-Aug-2018 06:46 4.3K 
[TXT]self_tune_ckt_aging.html21-Aug-2018 06:46 4.3K 
[TXT]miqp_admm.html21-Aug-2018 06:45 4.3K 
[TXT]distr_tuner.html21-Aug-2018 06:45 4.3K 
[TXT]gp_digital_ckt.html21-Aug-2018 06:45 4.3K 
[TXT]fast_mpc.html21-Aug-2018 06:45 4.3K 
[TXT]l1_logistic_reg.html21-Aug-2018 06:45 4.3K 
[TXT]fast_redstb.html21-Aug-2018 06:45 4.3K 
[TXT]portfolio.html21-Aug-2018 06:45 4.3K 
[TXT]cds_panel.html24-Apr-2013 07:04 4.3K 
[TXT]isqed05.html21-Aug-2018 06:45 4.3K 
[TXT]nucnorm.html21-Aug-2018 06:45 4.3K 
[TXT]equal_mm_fiber_slm.html21-Aug-2018 06:45 4.3K 
[TXT]p2p_ls.html21-Aug-2018 06:45 4.3K 
[TXT]rob_two_fund_sep.html21-Aug-2018 06:45 4.3K 
[TXT]eff_res.html21-Aug-2018 06:45 4.3K 
[TXT]rwl1.html21-Aug-2018 06:46 4.3K 
[TXT]network_lasso.html21-Aug-2018 06:45 4.3K 
[TXT]gpcad.html21-Aug-2018 06:45 4.3K 
[TXT]lms_consensus.html21-Aug-2018 06:45 4.3K 
[TXT]thermal_multiprocessor.html21-Aug-2018 06:46 4.3K 
[TXT]unc_fdd.html21-Aug-2018 06:46 4.3K 
[TXT]future_directions_control.html21-Aug-2018 06:45 4.3K 
[TXT]rob_glob_pg.html21-Aug-2018 06:45 4.3K 
[TXT]gatesizing.html21-Aug-2018 06:45 4.3K 
[TXT]sw_aff_ctrl.html21-Aug-2018 06:46 4.2K 
[TXT]state_est_sum_of_norms.html21-Aug-2018 06:46 4.2K 
[TXT]dccp.html21-Aug-2018 06:45 4.2K 
[TXT]ggs.html21-Aug-2018 06:45 4.2K 
[TXT]rob_downlink_bf.html21-Aug-2018 06:45 4.2K 
[TXT]robust_adiab_taper.html21-Aug-2018 06:46 4.2K 
[TXT]pogs.html21-Aug-2018 06:45 4.2K 
[TXT]cvx-control.html21-Aug-2018 06:45 4.2K 
[TXT]mixed_state_est.html21-Aug-2018 06:45 4.2K 
[TXT]lac.html21-Aug-2018 06:45 4.2K 
[TXT]ecos_codegen_ecc.html21-Aug-2018 06:45 4.2K 
[TXT]loop.html21-Aug-2018 06:45 4.2K 
[TXT]ecos.html21-Aug-2018 06:45 4.2K 
[TXT]lognormal.html21-Aug-2018 06:45 4.2K 
[TXT]lcd_cp.html21-Aug-2018 06:45 4.2K 
[TXT]dyn_port_opt.html21-Aug-2018 06:45 4.2K 
[TXT]wc_ell_one.html21-Aug-2018 06:46 4.2K 
[TXT]mf_equil.html21-Aug-2018 06:45 4.2K 
[TXT]async.html21-Aug-2018 06:45 4.2K 
[TXT]inductor_opt.html21-Aug-2018 06:45 4.1K 
[TXT]fdbk_alloc.html21-Aug-2018 06:45 4.1K 
[TXT]net_opt.html21-Aug-2018 06:45 4.1K 
[TXT]bisection_hinfty.html21-Aug-2018 06:45 4.1K 
[TXT]affine_contr.html21-Aug-2018 06:45 4.1K 
[TXT]proc_control_temp.html21-Aug-2018 06:45 4.1K 
[TXT]storage_opt.html21-Aug-2018 06:46 4.1K 
[TXT]id_stable_gene_nets.html21-Aug-2018 06:45 4.1K 
[TXT]cvx_poly_fit.html21-Aug-2018 06:45 4.1K 
[TXT]dmcp.html21-Aug-2018 06:45 4.1K 
[TXT]robust_bf.html21-Aug-2018 06:46 4.1K 
[TXT]multiperiod_portfolio_drawdown.html21-Aug-2018 06:45 4.1K 
[TXT]mmf_slm_cvx.html21-Aug-2018 06:45 4.1K 
[TXT]mimodmt.html21-Aug-2018 06:45 4.1K 
[TXT]fault_det.html21-Aug-2018 06:45 4.1K 
[TXT]gp_chan_cap.html21-Aug-2018 06:45 4.1K 
[TXT]magdes.html21-Aug-2018 06:45 4.1K 
[TXT]fmmc_path.html21-Aug-2018 06:45 4.1K 
[TXT]maxdet.html21-Aug-2018 06:45 4.1K 
[TXT]des_tools_emerg_tech.html21-Aug-2018 06:45 4.1K 
[TXT]fastavg.html21-Aug-2018 06:45 4.1K 
[TXT]socp.html21-Aug-2018 06:46 4.1K 
[TXT]sdp-apps.html21-Aug-2018 06:46 4.1K 
[TXT]am_smoothed.html21-Aug-2018 06:45 4.1K 
[TXT]pur_out_control.html21-Aug-2018 06:45 4.1K 
[TXT]sdp.html21-Aug-2018 06:46 4.1K 
[TXT]prac_robust.html21-Aug-2018 06:45 4.1K 
[TXT]simult_rate_pwr.html21-Aug-2018 06:46 4.1K 
[TXT]pwl_aff_fdbk.html21-Aug-2018 06:45 4.1K 
[TXT]robust_taper.html21-Aug-2018 06:46 4.1K 
[TXT]mh_filter_monotrend.html21-Aug-2018 06:45 4.0K 
[TXT]kelly.html21-Aug-2018 06:45 4.0K 
[TXT]semidef_relax_sensor_net_loc.html21-Aug-2018 06:46 4.0K 
[TXT]rt_cvx_sig_proc.html21-Aug-2018 06:46 4.0K 
[TXT]max_sum_sigmoids.html21-Aug-2018 06:45 4.0K 
[TXT]waterloo04.html21-Aug-2018 06:46 4.0K 
[TXT]opt_det_est.html21-Aug-2018 06:45 4.0K 
[TXT]nonlin_Q_param.html21-Aug-2018 06:45 4.0K 
[TXT]two_disk.html21-Aug-2018 06:46 4.0K 
[TXT]ecctd.html21-Aug-2018 06:45 4.0K 
[TXT]sensor_fusion.html21-Aug-2018 06:46 4.0K 
[TXT]form_flight.html21-Aug-2018 06:45 4.0K 
[TXT]sc-opf-prox-msg.html21-Aug-2018 06:46 4.0K 
[TXT]admm_infeas.html21-Aug-2018 06:45 4.0K 
[TXT]srracdma.html21-Aug-2018 06:46 4.0K 
[TXT]hybrid.html21-Aug-2018 06:45 4.0K 
[TXT]scalable_fleet_mon.html21-Aug-2018 06:46 4.0K 
[TXT]code_gen_impl.html21-Aug-2018 06:45 4.0K 
[TXT]opt_routes_adhoc.html21-Aug-2018 06:45 4.0K 
[TXT]foschini_genie.html21-Aug-2018 06:45 4.0K 
[TXT]admm_tv_est.html21-Aug-2018 06:45 4.0K 
[TXT]opt_crowd_pwr_rating.html21-Aug-2018 06:45 4.0K 
[TXT]msd.html21-Aug-2018 06:45 4.0K 
[TXT]dc_fault_est.html21-Aug-2018 06:45 4.0K 
[TXT]duality_bound.html21-Aug-2018 06:45 4.0K 
[TXT]metric_select_fdfbs.html21-Aug-2018 06:45 4.0K 
[TXT]stat_design_ML06.html21-Aug-2018 06:46 4.0K 
[TXT]rank_min_heur_hankel.html21-Aug-2018 06:45 4.0K 
[TXT]sat_splines.html21-Aug-2018 06:46 4.0K 
[TXT]aatp.html21-Aug-2018 06:45 4.0K 
[TXT]gossip_opt.html21-Aug-2018 06:45 4.0K 
[TXT]sv_of_tf.html21-Aug-2018 06:46 4.0K 
[TXT]numdc.html21-Aug-2018 06:45 4.0K 
[TXT]nd-iter-iir.html21-Aug-2018 06:45 4.0K 
[TXT]shdp.html21-Aug-2018 06:46 4.0K 
[TXT]IMEKO_paper.html21-Aug-2018 06:45 4.0K 
[TXT]adapt_mod_multiperiod.html21-Aug-2018 06:45 3.9K 
[TXT]it_avf.html21-Aug-2018 06:45 3.9K 
[TXT]contr_coef_trunc.html21-Aug-2018 06:45 3.9K 
[TXT]DFEdesign.html21-Aug-2018 06:45 3.9K 
[TXT]opt_routing.html14-Nov-2009 07:43 3.9K 
[TXT]opt_doping_profile.html21-Aug-2018 06:45 3.9K 
[TXT]block_splitting_short.html21-Aug-2018 06:45 3.9K 
[TXT]fading_volterra.html21-Aug-2018 06:45 3.9K 
[TXT]entropy_prob.html21-Aug-2018 06:45 3.9K 
[TXT]rob_reject_constr.html21-Aug-2018 06:45 3.9K 
[TXT]constrained_mhe.html21-Aug-2018 06:45 3.9K 
[TXT]snapvx.html21-Aug-2018 06:46 3.9K 
[TXT]wind_turbine_pitch_opt.html21-Aug-2018 06:46 3.9K 
[TXT]ncvx.html21-Aug-2018 06:45 3.9K 
[TXT]ee_uav.html21-Aug-2018 06:45 3.9K 
[TXT]parser_solver_matrix.html21-Aug-2018 06:45 3.9K 
[TXT]stoch_ctrl_bnds.html21-Aug-2018 06:46 3.9K 
[TXT]saturation_cvx_opt.html21-Aug-2018 06:46 3.9K 
[TXT]LmiQDes.html21-Aug-2018 06:45 3.9K 
[TXT]vtc_03.html21-Aug-2018 06:46 3.9K 
[TXT]int_est.html21-Aug-2018 06:45 3.9K 
[TXT]cvxr_paper.html21-Aug-2018 06:45 3.9K 
[TXT]pareto_opt_class.html21-Aug-2018 06:45 3.9K 
[TXT]cvxpy_rewriting.html21-Aug-2018 06:45 3.9K 
[TXT]metric_select_DR_ADMM.html21-Aug-2018 06:45 3.9K 
[TXT]subharmonic_LTI.html21-Aug-2018 06:46 3.9K 
[TXT]gen_ctrl_bnds.html21-Aug-2018 06:45 3.9K 
[TXT]ode_nest_grad.html21-Aug-2018 06:45 3.9K 
[TXT]pow_elec_ctrl.html21-Aug-2018 06:45 3.9K 
[TXT]mvu_duality.html21-Aug-2018 06:45 3.9K 
[TXT]avg_metropolis.html21-Aug-2018 06:45 3.9K 
[TXT]ispd_05.html21-Aug-2018 06:45 3.9K 
[TXT]dcsp.html21-Aug-2018 06:45 3.9K 
[TXT]osqp_embedded.html21-Aug-2018 06:45 3.9K 
[TXT]gauss_quad_lp.html21-Aug-2018 06:45 3.8K 
[TXT]fast_mix_symm.html21-Aug-2018 06:45 3.8K 
[TXT]cvxflow.html21-Aug-2018 06:45 3.8K 
[TXT]mimo_pid_tuning.html21-Aug-2018 06:45 3.8K 
[TXT]precond_fdgm.html21-Aug-2018 06:45 3.8K 
[TXT]perf_bnd_jitter.html21-Aug-2018 06:45 3.8K 
[TXT]FIR_plants.html21-Aug-2018 06:45 3.8K 
[TXT]opt_LC_oscil.html21-Aug-2018 06:45 3.8K 
[TXT]kernel_learning.html21-Aug-2018 06:45 3.8K 
[TXT]LTI_N_port.html21-Aug-2018 06:45 3.8K 
[TXT]nonexp_global_aa1.html21-Aug-2018 06:45 3.8K 
[TXT]CRCD_prog.html21-Aug-2018 06:45 3.8K 
[TXT]mp-dsm.html21-Aug-2018 06:45 3.8K 
[TXT]min_max_adp.html21-Aug-2018 06:45 3.8K 
[TXT]diag_scaling_DR_ADMM.html21-Aug-2018 06:45 3.8K 
[TXT]RobApprox.html21-Aug-2018 06:45 3.8K 
[TXT]oper_splt_ctrl.html21-Aug-2018 06:45 3.8K 
[TXT]wind_turbine_rhc.html21-Aug-2018 06:46 3.8K 
[TXT]loop_shaping_MIMO.html21-Aug-2018 06:45 3.8K 
[TXT]thermal_process.html21-Aug-2018 06:46 3.8K 
[TXT]eigbounds_laplacian.html21-Aug-2018 06:45 3.8K 
[TXT]adp_iter_bellman.html21-Aug-2018 06:45 3.8K 
[TXT]robust_FDA.html21-Aug-2018 06:45 3.8K 
[TXT]output_link_sched.html21-Aug-2018 06:45 3.8K 
[TXT]map_bounds.html21-Aug-2018 06:45 3.8K 
[TXT]opt_cap_res.html21-Aug-2018 06:45 3.8K 
[TXT]antag_control.html21-Aug-2018 06:45 3.8K 
[TXT]rob_opt.html21-Aug-2018 06:45 3.8K 
[TXT]growing_fast_graphs.html21-Aug-2018 06:45 3.8K 
[TXT]vwap_opt_exec.html21-Aug-2018 06:46 3.8K 
[TXT]dyn_ener_man.html21-Aug-2018 06:45 3.8K 
[TXT]analytical_volterra.html21-Aug-2018 06:45 3.8K 
[TXT]numAM2.html21-Aug-2018 06:45 3.8K 
[TXT]sw_reluc_motor.html21-Aug-2018 06:46 3.8K 
[TXT]speed_opt.html21-Aug-2018 06:46 3.8K 
[TXT]quad_adp_inp_aff.html21-Aug-2018 06:45 3.7K 
[TXT]ellipsoidal_plant.html21-Aug-2018 06:45 3.7K 
[TXT]monotone_primer.html21-Aug-2018 06:45 3.7K 
[TXT]induc_motor.html21-Aug-2018 06:45 3.7K 
[TXT]l1_cvx_loss.html21-Aug-2018 06:45 3.7K 
[TXT]detect_aircraft_anom.html21-Aug-2018 06:45 3.7K 
[TXT]thermal_energy_storage.html21-Aug-2018 06:46 3.7K 
[TXT]admm_gam.html21-Aug-2018 06:45 3.7K 
[TXT]int_quad_cuts.html21-Aug-2018 06:45 3.7K 
[TXT]LMI_sys_ctrl.html21-Aug-2018 06:45 3.7K 
[TXT]cvxpy_paper.html21-Aug-2018 06:45 3.7K 
[TXT]wafer_temperature.html21-Aug-2018 06:46 3.7K 
[TXT]cvx_ccv.html21-Aug-2018 06:45 3.7K 
[TXT]stability_robustness.html21-Aug-2018 06:46 3.7K 
[TXT]interpol.html21-Aug-2018 06:45 3.7K 
[TXT]beamform_reg.html21-Aug-2018 06:45 3.7K 
[TXT]cvx_linear_ctrl.html21-Aug-2018 06:45 3.7K 
[TXT]rob_opt_control_pd.html21-Aug-2018 06:45 3.7K 
[TXT]new_arch_opt_model.html02-Dec-2016 09:07 3.7K 
[TXT]res_alloc_qos.html21-Aug-2018 06:45 3.7K 
[TXT]int_least_squares.html21-Aug-2018 06:45 3.7K 
[TXT]quant_compr_sens.html21-Aug-2018 06:45 3.7K 
[TXT]nonlin_opt_queue.html21-Aug-2018 06:45 3.7K 
[TXT]bnb_polytope.html21-Aug-2018 06:45 3.7K 
[TXT]pll_synth.html21-Aug-2018 06:45 3.7K 
[TXT]opt_kernel_kfda.html21-Aug-2018 06:45 3.7K 
[TXT]springer_lectures.html21-Aug-2018 06:46 3.7K 
[TXT]eng_des.html21-Aug-2018 06:45 3.7K 
[TXT]ls_num.html21-Aug-2018 06:45 3.7K 
[TXT]mm_dist_lapl.html21-Aug-2018 06:45 3.7K 
[TXT]distr_contr_cdc04.html21-Aug-2018 06:45 3.7K 
[TXT]convexjl.html21-Aug-2018 06:45 3.7K 
[TXT]stability_saturating.html21-Aug-2018 06:46 3.6K 
[TXT]peb.html21-Aug-2018 06:45 3.6K 
[TXT]numAM.html21-Aug-2018 06:45 3.6K 
[TXT]worst_case_cap.html21-Aug-2018 06:46 3.6K 
[TXT]homotopy.html21-Aug-2018 06:45 3.6K 
[TXT]simul_lyapunov.html21-Aug-2018 06:46 3.6K 
[TXT]imputed_objective.html21-Aug-2018 06:45 3.6K 
[TXT]graph_isom.html21-Aug-2018 06:45 3.6K 
[TXT]pdos.html21-Aug-2018 06:45 3.6K 
[TXT]peak_RMS_gain.html21-Aug-2018 06:45 3.6K 
[TXT]iter_water_filling.html21-Aug-2018 06:45 3.6K 
[TXT]obliv_route.html21-Aug-2018 06:45 3.6K 
[TXT]relaxations.html21-Aug-2018 06:45 3.6K 
[TXT]set_member_id.html21-Aug-2018 06:46 3.6K 
[TXT]sip.html21-Aug-2018 06:46 3.6K 
[TXT]parametric_H_infty.html21-Aug-2018 06:45 3.6K 
[TXT]jemdoc.css09-Jul-2018 09:44 3.6K 
[TXT]para_conv_adaptive.html21-Aug-2018 06:45 3.6K 
[TXT]restart_fgm.html21-Aug-2018 06:45 3.6K 
[TXT]prob_bnds.html21-Aug-2018 06:45 3.6K 
[TXT]seo-acc.html21-Aug-2018 06:46 3.6K 
[TXT]risk_bnd.html21-Aug-2018 06:45 3.6K 
[TXT]l1_seg.html21-Aug-2018 06:45 3.6K 
[TXT]symmetry.html21-Aug-2018 06:46 3.5K 
[TXT]nonparametric_dyna.html21-Aug-2018 06:45 3.5K 
[TXT]line_search_avg_iter.html21-Aug-2018 06:45 3.5K 
[TXT]ant-pat.html21-Aug-2018 06:45 3.5K 
[TXT]cvx_pwl_fit.html21-Aug-2018 06:45 3.5K 
[TXT]p_lin.html21-Aug-2018 06:45 3.5K 
[TXT]cvx_min_unmix.html21-Aug-2018 06:45 3.5K 
[TXT]hinf_tradeoffs.html21-Aug-2018 06:45 3.5K 
[TXT]volterra_kernel.html21-Aug-2018 06:46 3.5K 
[TXT]tomography.html21-Aug-2018 06:46 3.5K 
[TXT]rank_min_sys_theory.html21-Aug-2018 06:45 3.5K 
[TXT]qos_fairness.html21-Aug-2018 06:45 3.5K 
[TXT]no_spectrum.html21-Aug-2018 06:45 3.5K 
[TXT]qcqp.html21-Aug-2018 06:45 3.5K 
[TXT]inv_des_3D_nano_res.html21-Aug-2018 06:45 3.5K 
[TXT]graph_dcp.html21-Aug-2018 06:45 3.5K 
[TXT]snorm.html21-Aug-2018 06:46 3.5K 
[TXT]ellips_approx_hadamard.html21-Aug-2018 06:45 3.5K 
[TXT]filt_coef_trunc.html21-Aug-2018 06:45 3.5K 
[TXT]pric_learn_unc_demand.html21-Aug-2018 06:45 3.5K 
[TXT]adaMC.html21-Aug-2018 06:45 3.5K 
[TXT]on_para_converge.html21-Aug-2018 06:45 3.5K 
[TXT]global_opt.html21-Aug-2018 06:45 3.5K 
[TXT]order_ell_one.html21-Aug-2018 06:45 3.5K 
[TXT]fitting_jump_models.html21-Aug-2018 06:45 3.4K 
[TXT]one_nonlinearity.html21-Aug-2018 06:45 3.4K 
[TXT]min_stab_degree.html21-Aug-2018 06:45 3.4K 
[TXT]BMI_Benders.html21-Aug-2018 06:45 3.4K 
[TXT]min_cond_sub.html21-Aug-2018 06:45 3.4K 
[TXT]para_nonpara_uncertain.html21-Aug-2018 06:45 3.4K 
[TXT]norm_pdls.html21-Aug-2018 06:45 3.4K 
[TXT]history_lmi_ctrl.html21-Aug-2018 06:45 3.4K 
[TXT]volterra_nonlinear_circuit.html21-Aug-2018 06:46 3.4K 
[TXT]pid_tuning.html21-Aug-2018 06:45 3.4K 
[TXT]perturbation_bounds.html21-Aug-2018 06:45 3.4K 
[TXT]friendly_LMI.html21-Aug-2018 06:45 3.4K 
[TXT]nusynt.html21-Aug-2018 06:45 3.4K 
[TXT]delay.html21-Aug-2018 06:45 3.3K 
[TXT]mu_ub.html21-Aug-2018 06:45 3.3K 
[TXT]id_para_nonpara.html21-Aug-2018 06:45 3.3K 
[TXT]quantization_noisy.html21-Aug-2018 06:45 3.3K 
[TXT]H_infty_tf.html21-Aug-2018 06:45 3.3K 
[TXT]yield.html21-Aug-2018 06:46 3.3K 
[TXT]h2.html21-Aug-2018 06:45 3.3K 
[TXT]unique_nonlinear.html21-Aug-2018 06:46 3.3K 
[TXT]worst_cov.html21-Aug-2018 06:46 3.3K 
[TXT]review_mct.html21-Aug-2018 06:45 3.2K 
[TXT]multitone_low_crest.html21-Aug-2018 06:45 3.2K 
[TXT]robust_control_tools.html21-Aug-2018 06:46 3.2K 
[TXT]ell_one_optimal.html21-Aug-2018 06:45 3.2K 
[TXT]schol_pub_crisis.html21-Aug-2018 06:46 3.2K 
[TXT]sb_control_award_speech.html21-Aug-2018 06:46 3.2K 
[TXT]semicond_hist.html21-Aug-2018 06:46 3.2K 
[TXT]isit02.html21-Aug-2018 06:45 3.1K 
[TXT]open_prob_cc.html21-Aug-2018 06:45 3.0K 
[TXT]structure_nonlinear_sys.html21-Aug-2018 06:46 3.0K 
[TXT]hausdorff_meas_line.html21-Aug-2018 06:45 3.0K 
[TXT]phd_thesis.html21-Aug-2018 06:45 2.9K 
[TXT]elec_design_paper.html21-Aug-2018 06:45 2.7K 
[TXT]robustlp.html21-Aug-2018 06:46 2.4K 
[TXT]papers.css09-Nov-2007 17:04 373  
[TXT]boyd.css09-Nov-2007 10:01 113  
[DIR]ps/23-Nov-2007 15:08 -  
[DIR]prox_algs/07-May-2013 15:17 -  
[DIR]pdf/11-Aug-2018 22:51 -  
[DIR]oper_splt_ctrl/15-May-2012 22:13 -  
[DIR]matlab/11-Mar-2017 22:32 -  
[DIR]html/22-Nov-2007 10:01 -  
[DIR]eqs/21-Aug-2018 06:46 -  
[DIR]admm/26-Apr-2011 09:03 -